sensor_id;sensor_type;location;lat;lon;timestamp;temperature;humidity
780;DHT22;373;49.342;8.146;2023-01-09T00:32:05;8.90;99.90
780;DHT22;373;49.342;8.146;2023-01-09T00:35:01;8.90;99.90
780;DHT22;373;49.342;8.146;2023-01-09T00:38:00;8.80;99.90
780;DHT22;373;49.342;8.146;2023-01-09T00:40:53;8.80;99.90
780;DHT22;373;49.342;8.146;2023-01-09T00:47:08;8.80;99.90
780;DHT22;373;49.342;8.146;2023-01-09T00:53:34;8.80;99.90
780;DHT22;373;49.342;8.146;2023-01-09T00:56:41;8.90;99.90
780;DHT22;373;49.342;8.146;2023-01-09T01:00:07;9.00;99.90
780;DHT22;373;49.342;8.146;2023-01-09T01:03:24;8.90;99.90
780;DHT22;373;49.342;8.146;2023-01-09T01:06:29;9.00;99.90
780;DHT22;373;49.342;8.146;2023-01-09T01:09:41;9.00;99.90
780;DHT22;373;49.342;8.146;2023-01-09T01:12:36;9.00;99.90
780;DHT22;373;49.342;8.146;2023-01-09T01:15:41;9.10;99.90
780;DHT22;373;49.342;8.146;2023-01-09T01:19:20;9.00;99.90
780;DHT22;373;49.342;8.146;2023-01-09T01:22:11;9.10;99.90
780;DHT22;373;49.342;8.146;2023-01-09T01:25:26;9.40;99.90
780;DHT22;373;49.342;8.146;2023-01-09T01:31:50;9.70;99.90
780;DHT22;373;49.342;8.146;2023-01-09T01:38:31;9.90;99.90
780;DHT22;373;49.342;8.146;2023-01-09T01:41:03;10.00;99.90
780;DHT22;373;49.342;8.146;2023-01-09T01:43:50;10.00;99.90
780;DHT22;373;49.342;8.146;2023-01-09T01:46:26;10.10;99.90
780;DHT22;373;49.342;8.146;2023-01-09T01:52:37;10.00;99.90
780;DHT22;373;49.342;8.146;2023-01-09T01:56:21;10.00;99.90
780;DHT22;373;49.342;8.146;2023-01-09T01:59:58;10.00;99.90
780;DHT22;373;49.342;8.146;2023-01-09T02:06:24;9.90;99.90
780;DHT22;373;49.342;8.146;2023-01-09T02:09:12;10.00;99.90
780;DHT22;373;49.342;8.146;2023-01-09T02:15:53;10.00;99.90
780;DHT22;373;49.342;8.146;2023-01-09T02:19:05;9.90;99.90
780;DHT22;373;49.342;8.146;2023-01-09T02:21:57;10.00;99.90
780;DHT22;373;49.342;8.146;2023-01-09T02:38:52;10.00;99.90
780;DHT22;373;49.342;8.146;2023-01-09T02:45:00;10.00;99.90
780;DHT22;373;49.342;8.146;2023-01-09T02:47:39;9.90;99.90
780;DHT22;373;49.342;8.146;2023-01-09T02:52:10;10.00;99.90
780;DHT22;373;49.342;8.146;2023-01-09T02:54:13;10.00;99.90
780;DHT22;373;49.342;8.146;2023-01-09T02:58:28;10.10;99.90
780;DHT22;373;49.342;8.146;2023-01-09T03:05:12;10.00;99.90
780;DHT22;373;49.342;8.146;2023-01-09T03:15:18;9.90;99.90
780;DHT22;373;49.342;8.146;2023-01-09T03:21:19;9.60;99.90
780;DHT22;373;49.342;8.146;2023-01-09T03:24:34;9.60;99.90
780;DHT22;373;49.342;8.146;2023-01-09T03:31:18;9.40;99.90
780;DHT22;373;49.342;8.146;2023-01-09T03:34:12;9.20;99.90
780;DHT22;373;49.342;8.146;2023-01-09T03:37:10;9.10;99.90
780;DHT22;373;49.342;8.146;2023-01-09T03:40:45;9.20;99.90
780;DHT22;373;49.342;8.146;2023-01-09T03:43:41;9.10;99.90
780;DHT22;373;49.342;8.146;2023-01-09T03:46:29;9.10;99.90
780;DHT22;373;49.342;8.146;2023-01-09T03:49:18;9.10;99.90
780;DHT22;373;49.342;8.146;2023-01-09T03:51:48;9.10;99.90
780;DHT22;373;49.342;8.146;2023-01-09T03:54:27;9.00;99.90
780;DHT22;373;49.342;8.146;2023-01-09T04:00:49;9.00;99.90
780;DHT22;373;49.342;8.146;2023-01-09T04:03:54;8.90;99.90
780;DHT22;373;49.342;8.146;2023-01-09T04:07:45;8.90;99.90
780;DHT22;373;49.342;8.146;2023-01-09T04:11:02;8.80;99.90
780;DHT22;373;49.342;8.146;2023-01-09T04:24:29;8.80;99.90
780;DHT22;373;49.342;8.146;2023-01-09T04:31:29;8.70;99.90
780;DHT22;373;49.342;8.146;2023-01-09T04:38:06;8.90;99.90
780;DHT22;373;49.342;8.146;2023-01-09T04:41:26;8.80;99.90
780;DHT22;373;49.342;8.146;2023-01-09T04:48:06;8.90;99.90
780;DHT22;373;49.342;8.146;2023-01-09T04:51:09;9.10;99.90
780;DHT22;373;49.342;8.146;2023-01-09T05:00:59;8.70;99.90
780;DHT22;373;49.342;8.146;2023-01-09T05:07:45;8.70;99.90
780;DHT22;373;49.342;8.146;2023-01-09T05:10:23;8.70;99.90
780;DHT22;373;49.342;8.146;2023-01-09T05:13:27;8.50;99.90
780;DHT22;373;49.342;8.146;2023-01-09T05:19:53;8.30;99.90
780;DHT22;373;49.342;8.146;2023-01-09T05:25:22;8.20;99.90
780;DHT22;373;49.342;8.146;2023-01-09T05:27:04;8.10;99.90
780;DHT22;373;49.342;8.146;2023-01-09T05:33:52;8.10;99.90
780;DHT22;373;49.342;8.146;2023-01-09T05:36:46;8.10;99.90
780;DHT22;373;49.342;8.146;2023-01-09T05:42:25;8.10;99.90
780;DHT22;373;49.342;8.146;2023-01-09T05:45:16;8.20;99.90
780;DHT22;373;49.342;8.146;2023-01-09T05:48:15;8.00;99.90
780;DHT22;373;49.342;8.146;2023-01-09T05:51:25;8.10;99.90
780;DHT22;373;49.342;8.146;2023-01-09T05:54:18;8.10;99.90
780;DHT22;373;49.342;8.146;2023-01-09T05:56:45;8.10;99.90
780;DHT22;373;49.342;8.146;2023-01-09T05:59:20;8.10;99.90
780;DHT22;373;49.342;8.146;2023-01-09T06:01:51;8.20;99.90
780;DHT22;373;49.342;8.146;2023-01-09T06:04:33;8.20;99.90
780;DHT22;373;49.342;8.146;2023-01-09T06:18:27;7.90;99.90
780;DHT22;373;49.342;8.146;2023-01-09T06:40:25;8.00;99.90
780;DHT22;373;49.342;8.146;2023-01-09T07:09:28;8.00;99.90
780;DHT22;373;49.342;8.146;2023-01-09T07:16:43;7.90;99.90
780;DHT22;373;49.342;8.146;2023-01-09T07:19:44;8.00;99.90
780;DHT22;373;49.342;8.146;2023-01-09T07:23:07;8.00;99.90
780;DHT22;373;49.342;8.146;2023-01-09T07:30:02;7.90;99.90
780;DHT22;373;49.342;8.146;2023-01-09T07:32:46;8.00;99.90
780;DHT22;373;49.342;8.146;2023-01-09T07:35:51;7.90;99.90
780;DHT22;373;49.342;8.146;2023-01-09T07:39:06;7.90;99.90
780;DHT22;373;49.342;8.146;2023-01-09T07:42:00;7.90;99.90
780;DHT22;373;49.342;8.146;2023-01-09T08:00:39;7.80;99.90
780;DHT22;373;49.342;8.146;2023-01-09T08:03:32;7.80;99.90
780;DHT22;373;49.342;8.146;2023-01-09T08:09:54;7.80;99.90
780;DHT22;373;49.342;8.146;2023-01-09T08:12:26;7.80;99.90
780;DHT22;373;49.342;8.146;2023-01-09T08:14:55;7.80;99.90
780;DHT22;373;49.342;8.146;2023-01-09T08:17:32;7.90;99.90
780;DHT22;373;49.342;8.146;2023-01-09T08:20:07;8.10;99.90
780;DHT22;373;49.342;8.146;2023-01-09T08:44:48;8.20;99.90
780;DHT22;373;49.342;8.146;2023-01-09T08:47:33;8.20;99.90
780;DHT22;373;49.342;8.146;2023-01-09T08:50:10;8.10;99.90
780;DHT22;373;49.342;8.146;2023-01-09T08:52:42;8.20;99.90
780;DHT22;373;49.342;8.146;2023-01-09T08:55:09;8.30;99.90
780;DHT22;373;49.342;8.146;2023-01-09T08:57:45;8.30;99.90
780;DHT22;373;49.342;8.146;2023-01-09T09:00:15;8.30;99.90
780;DHT22;373;49.342;8.146;2023-01-09T09:02:44;8.20;99.90
780;DHT22;373;49.342;8.146;2023-01-09T09:05:11;8.20;99.90
780;DHT22;373;49.342;8.146;2023-01-09T09:07:49;8.20;99.90
780;DHT22;373;49.342;8.146;2023-01-09T09:29:49;8.20;99.90
780;DHT22;373;49.342;8.146;2023-01-09T09:32:45;8.30;99.90
780;DHT22;373;49.342;8.146;2023-01-09T09:39:45;8.40;99.90
780;DHT22;373;49.342;8.146;2023-01-09T09:42:42;8.40;99.90
780;DHT22;373;49.342;8.146;2023-01-09T09:45:41;8.50;99.90
780;DHT22;373;49.342;8.146;2023-01-09T09:48:32;8.50;99.90
780;DHT22;373;49.342;8.146;2023-01-09T09:58:37;8.80;99.90
780;DHT22;373;49.342;8.146;2023-01-09T10:12:46;8.90;99.90
780;DHT22;373;49.342;8.146;2023-01-09T10:23:06;8.90;99.90
780;DHT22;373;49.342;8.146;2023-01-09T10:26:23;8.70;99.90
780;DHT22;373;49.342;8.146;2023-01-09T10:36:29;9.60;99.90
780;DHT22;373;49.342;8.146;2023-01-09T10:42:38;11.70;97.50
780;DHT22;373;49.342;8.146;2023-01-09T10:50:56;11.20;97.30
780;DHT22;373;49.342;8.146;2023-01-09T11:01:48;9.00;99.90
780;DHT22;373;49.342;8.146;2023-01-09T11:04:53;8.80;99.90
780;DHT22;373;49.342;8.146;2023-01-09T11:11:43;8.40;99.90
780;DHT22;373;49.342;8.146;2023-01-09T11:15:35;8.50;99.90
780;DHT22;373;49.342;8.146;2023-01-09T11:18:49;8.50;99.90
780;DHT22;373;49.342;8.146;2023-01-09T11:22:10;8.40;99.90
780;DHT22;373;49.342;8.146;2023-01-09T11:40:00;8.70;99.90
780;DHT22;373;49.342;8.146;2023-01-09T11:46:37;9.00;99.90
780;DHT22;373;49.342;8.146;2023-01-09T11:55:56;11.60;99.90
780;DHT22;373;49.342;8.146;2023-01-09T12:02:58;13.40;94.90
780;DHT22;373;49.342;8.146;2023-01-09T12:11:28;12.50;96.20
780;DHT22;373;49.342;8.146;2023-01-09T12:17:08;11.90;94.70
780;DHT22;373;49.342;8.146;2023-01-09T12:19:54;11.00;98.00
780;DHT22;373;49.342;8.146;2023-01-09T12:22:32;11.30;97.80
780;DHT22;373;49.342;8.146;2023-01-09T12:25:24;10.90;97.60
780;DHT22;373;49.342;8.146;2023-01-09T13:14:56;9.60;99.30
780;DHT22;373;49.342;8.146;2023-01-09T13:25:12;10.40;97.30
780;DHT22;373;49.342;8.146;2023-01-09T13:29:17;10.00;97.20
780;DHT22;373;49.342;8.146;2023-01-09T13:33:07;9.90;99.10
780;DHT22;373;49.342;8.146;2023-01-09T13:43:38;9.70;99.40
780;DHT22;373;49.342;8.146;2023-01-09T14:00:24;9.30;99.90
780;DHT22;373;49.342;8.146;2023-01-09T14:10:45;9.60;98.30
780;DHT22;373;49.342;8.146;2023-01-09T14:32:39;9.00;99.20
780;DHT22;373;49.342;8.146;2023-01-09T14:50:54;8.90;99.90
780;DHT22;373;49.342;8.146;2023-01-09T15:09:24;8.70;99.90
780;DHT22;373;49.342;8.146;2023-01-09T15:16:03;8.50;99.90
780;DHT22;373;49.342;8.146;2023-01-09T16:13:17;7.60;99.90
780;DHT22;373;49.342;8.146;2023-01-09T16:15:44;7.60;99.90
780;DHT22;373;49.342;8.146;2023-01-09T16:18:27;7.70;99.90
780;DHT22;373;49.342;8.146;2023-01-09T16:21:23;7.60;99.90
780;DHT22;373;49.342;8.146;2023-01-09T16:23:55;7.70;99.90
780;DHT22;373;49.342;8.146;2023-01-09T16:26:29;7.70;99.90
780;DHT22;373;49.342;8.146;2023-01-09T16:29:31;7.80;99.90
780;DHT22;373;49.342;8.146;2023-01-09T16:32:00;7.70;99.90
780;DHT22;373;49.342;8.146;2023-01-09T16:34:27;7.60;99.90
780;DHT22;373;49.342;8.146;2023-01-09T16:36:57;7.60;99.90
780;DHT22;373;49.342;8.146;2023-01-09T16:40:15;7.70;99.90
780;DHT22;373;49.342;8.146;2023-01-09T16:43:07;7.60;99.90
780;DHT22;373;49.342;8.146;2023-01-09T16:45:44;7.50;99.90
780;DHT22;373;49.342;8.146;2023-01-09T16:48:12;7.60;99.90
780;DHT22;373;49.342;8.146;2023-01-09T16:51:34;7.70;99.90
780;DHT22;373;49.342;8.146;2023-01-09T16:54:33;7.70;99.90
780;DHT22;373;49.342;8.146;2023-01-09T16:58:14;7.70;99.90
780;DHT22;373;49.342;8.146;2023-01-09T17:00:41;7.90;99.90
780;DHT22;373;49.342;8.146;2023-01-09T17:03:12;7.90;99.90
780;DHT22;373;49.342;8.146;2023-01-09T17:06:28;7.90;99.90
780;DHT22;373;49.342;8.146;2023-01-09T17:09:01;8.10;99.90
780;DHT22;373;49.342;8.146;2023-01-09T17:12:17;8.10;99.90
780;DHT22;373;49.342;8.146;2023-01-09T17:14:47;7.90;99.90
780;DHT22;373;49.342;8.146;2023-01-09T17:17:43;7.70;99.90
780;DHT22;373;49.342;8.146;2023-01-09T17:21:22;7.60;99.90
780;DHT22;373;49.342;8.146;2023-01-09T17:23:52;7.60;99.90
780;DHT22;373;49.342;8.146;2023-01-09T17:38:07;7.70;99.90
780;DHT22;373;49.342;8.146;2023-01-09T17:48:28;7.80;99.90
780;DHT22;373;49.342;8.146;2023-01-09T18:02:02;7.70;99.90
780;DHT22;373;49.342;8.146;2023-01-09T18:08:59;7.50;99.90
780;DHT22;373;49.342;8.146;2023-01-09T18:11:27;7.40;99.90
780;DHT22;373;49.342;8.146;2023-01-09T18:13:54;7.40;99.90
780;DHT22;373;49.342;8.146;2023-01-09T18:16:23;7.40;99.90
780;DHT22;373;49.342;8.146;2023-01-09T18:18:54;7.30;99.90
780;DHT22;373;49.342;8.146;2023-01-09T18:21:24;7.30;99.90
780;DHT22;373;49.342;8.146;2023-01-09T18:23:51;7.30;99.90
780;DHT22;373;49.342;8.146;2023-01-09T18:26:19;7.50;99.90
780;DHT22;373;49.342;8.146;2023-01-09T18:28:48;7.50;99.90
780;DHT22;373;49.342;8.146;2023-01-09T18:31:17;7.60;99.90
780;DHT22;373;49.342;8.146;2023-01-09T18:33:47;7.40;99.90
780;DHT22;373;49.342;8.146;2023-01-09T18:36:19;7.50;99.90
780;DHT22;373;49.342;8.146;2023-01-09T18:38:49;7.40;99.90
780;DHT22;373;49.342;8.146;2023-01-09T18:41:17;7.30;99.90
780;DHT22;373;49.342;8.146;2023-01-09T18:43:47;7.40;99.90
780;DHT22;373;49.342;8.146;2023-01-09T18:46:14;7.40;99.90
780;DHT22;373;49.342;8.146;2023-01-09T18:48:50;7.50;99.90
780;DHT22;373;49.342;8.146;2023-01-09T18:51:18;7.60;99.90
780;DHT22;373;49.342;8.146;2023-01-09T18:53:46;7.60;99.90
780;DHT22;373;49.342;8.146;2023-01-09T18:56:13;7.50;99.90
780;DHT22;373;49.342;8.146;2023-01-09T18:58:40;7.60;99.90
780;DHT22;373;49.342;8.146;2023-01-09T19:01:07;7.70;99.90
780;DHT22;373;49.342;8.146;2023-01-09T19:03:35;7.70;99.90
780;DHT22;373;49.342;8.146;2023-01-09T19:06:02;7.70;99.90
780;DHT22;373;49.342;8.146;2023-01-09T19:08:32;7.70;99.90
780;DHT22;373;49.342;8.146;2023-01-09T19:11:00;7.80;99.90
780;DHT22;373;49.342;8.146;2023-01-09T19:13:29;7.70;99.90
780;DHT22;373;49.342;8.146;2023-01-09T19:15:57;7.70;99.90
780;DHT22;373;49.342;8.146;2023-01-09T19:18:25;7.80;99.90
780;DHT22;373;49.342;8.146;2023-01-09T19:20:53;7.70;99.90
780;DHT22;373;49.342;8.146;2023-01-09T19:23:21;7.80;99.90
780;DHT22;373;49.342;8.146;2023-01-09T19:25:51;7.80;99.90
780;DHT22;373;49.342;8.146;2023-01-09T19:28:19;7.80;99.90
780;DHT22;373;49.342;8.146;2023-01-09T19:30:52;7.80;99.90
780;DHT22;373;49.342;8.146;2023-01-09T19:33:19;8.00;99.90
780;DHT22;373;49.342;8.146;2023-01-09T19:35:47;7.80;99.90
780;DHT22;373;49.342;8.146;2023-01-09T19:38:14;7.80;99.90
780;DHT22;373;49.342;8.146;2023-01-09T19:40:41;7.80;99.90
780;DHT22;373;49.342;8.146;2023-01-09T19:43:10;7.80;99.90
780;DHT22;373;49.342;8.146;2023-01-09T19:45:50;7.80;99.90
780;DHT22;373;49.342;8.146;2023-01-09T19:48:24;7.90;99.90
780;DHT22;373;49.342;8.146;2023-01-09T19:50:58;7.90;99.90
780;DHT22;373;49.342;8.146;2023-01-09T19:53:27;7.80;99.90
780;DHT22;373;49.342;8.146;2023-01-09T19:56:05;7.70;99.90
780;DHT22;373;49.342;8.146;2023-01-09T19:58:34;7.80;99.90
780;DHT22;373;49.342;8.146;2023-01-09T20:01:06;7.70;99.90
780;DHT22;373;49.342;8.146;2023-01-09T20:03:44;7.80;99.90
780;DHT22;373;49.342;8.146;2023-01-09T20:06:18;7.80;99.90
780;DHT22;373;49.342;8.146;2023-01-09T20:08:52;7.90;99.90
780;DHT22;373;49.342;8.146;2023-01-09T20:11:31;7.80;99.90
780;DHT22;373;49.342;8.146;2023-01-09T20:14:28;7.90;99.90
780;DHT22;373;49.342;8.146;2023-01-09T20:16:59;7.80;99.90
780;DHT22;373;49.342;8.146;2023-01-09T20:19:37;7.70;99.90
780;DHT22;373;49.342;8.146;2023-01-09T20:22:12;7.80;99.90
780;DHT22;373;49.342;8.146;2023-01-09T20:24:42;7.60;99.90
780;DHT22;373;49.342;8.146;2023-01-09T20:27:26;7.70;99.90
780;DHT22;373;49.342;8.146;2023-01-09T20:29:54;7.70;99.90
780;DHT22;373;49.342;8.146;2023-01-09T20:32:22;7.70;99.90
780;DHT22;373;49.342;8.146;2023-01-09T20:34:54;7.80;99.90
780;DHT22;373;49.342;8.146;2023-01-09T20:37:32;7.90;99.90
780;DHT22;373;49.342;8.146;2023-01-09T20:40:08;7.90;99.90
780;DHT22;373;49.342;8.146;2023-01-09T20:42:35;7.80;99.90
780;DHT22;373;49.342;8.146;2023-01-09T20:45:05;7.90;99.90
780;DHT22;373;49.342;8.146;2023-01-09T20:47:32;7.90;99.90
780;DHT22;373;49.342;8.146;2023-01-09T20:49:59;7.90;99.90
780;DHT22;373;49.342;8.146;2023-01-09T20:52:27;7.90;99.90
780;DHT22;373;49.342;8.146;2023-01-09T20:54:54;7.90;99.90
780;DHT22;373;49.342;8.146;2023-01-09T20:57:21;7.90;99.90
780;DHT22;373;49.342;8.146;2023-01-09T20:59:48;7.90;99.90
780;DHT22;373;49.342;8.146;2023-01-09T21:02:17;7.90;99.90
780;DHT22;373;49.342;8.146;2023-01-09T21:04:46;7.80;99.90
780;DHT22;373;49.342;8.146;2023-01-09T21:07:14;7.70;99.90
780;DHT22;373;49.342;8.146;2023-01-09T21:09:42;7.70;99.90
780;DHT22;373;49.342;8.146;2023-01-09T21:12:09;7.90;99.90
780;DHT22;373;49.342;8.146;2023-01-09T21:14:52;7.70;99.90
780;DHT22;373;49.342;8.146;2023-01-09T21:17:21;7.80;99.90
780;DHT22;373;49.342;8.146;2023-01-09T21:19:49;7.80;99.90
780;DHT22;373;49.342;8.146;2023-01-09T21:22:16;7.80;99.90
780;DHT22;373;49.342;8.146;2023-01-09T21:24:43;7.80;99.90
780;DHT22;373;49.342;8.146;2023-01-09T21:27:11;7.70;99.90
780;DHT22;373;49.342;8.146;2023-01-09T21:29:38;7.80;99.90
780;DHT22;373;49.342;8.146;2023-01-09T21:32:05;8.00;99.90
780;DHT22;373;49.342;8.146;2023-01-09T21:34:34;7.90;99.90
780;DHT22;373;49.342;8.146;2023-01-09T21:37:01;8.00;99.90
780;DHT22;373;49.342;8.146;2023-01-09T21:39:28;8.20;99.90
780;DHT22;373;49.342;8.146;2023-01-09T21:41:55;8.40;99.90
780;DHT22;373;49.342;8.146;2023-01-09T21:44:39;8.40;99.90
780;DHT22;373;49.342;8.146;2023-01-09T21:47:24;8.40;99.90
780;DHT22;373;49.342;8.146;2023-01-09T21:49:53;8.10;99.90
780;DHT22;373;49.342;8.146;2023-01-09T21:52:20;8.10;99.90
780;DHT22;373;49.342;8.146;2023-01-09T21:54:47;8.10;99.90
780;DHT22;373;49.342;8.146;2023-01-09T21:57:14;8.10;99.90
780;DHT22;373;49.342;8.146;2023-01-09T21:59:41;8.20;99.90
780;DHT22;373;49.342;8.146;2023-01-09T22:02:10;8.20;99.90
780;DHT22;373;49.342;8.146;2023-01-09T22:04:38;8.20;99.90
780;DHT22;373;49.342;8.146;2023-01-09T22:07:09;8.20;99.90
780;DHT22;373;49.342;8.146;2023-01-09T22:09:36;8.30;99.90
780;DHT22;373;49.342;8.146;2023-01-09T22:12:03;8.40;99.90
780;DHT22;373;49.342;8.146;2023-01-09T22:14:30;8.40;99.90
780;DHT22;373;49.342;8.146;2023-01-09T22:16:57;8.40;99.90
780;DHT22;373;49.342;8.146;2023-01-09T22:19:24;8.40;99.90
780;DHT22;373;49.342;8.146;2023-01-09T22:21:53;8.40;99.90
780;DHT22;373;49.342;8.146;2023-01-09T22:24:21;8.40;99.90
780;DHT22;373;49.342;8.146;2023-01-09T22:26:48;8.40;99.90
780;DHT22;373;49.342;8.146;2023-01-09T22:29:15;8.40;99.90
780;DHT22;373;49.342;8.146;2023-01-09T22:31:42;8.40;99.90
780;DHT22;373;49.342;8.146;2023-01-09T22:34:12;8.40;99.90
780;DHT22;373;49.342;8.146;2023-01-09T22:36:40;8.40;99.90
780;DHT22;373;49.342;8.146;2023-01-09T22:39:10;8.30;99.90
780;DHT22;373;49.342;8.146;2023-01-09T22:41:39;8.20;99.90
780;DHT22;373;49.342;8.146;2023-01-09T22:44:07;8.60;99.90
780;DHT22;373;49.342;8.146;2023-01-09T22:46:35;8.70;99.90
780;DHT22;373;49.342;8.146;2023-01-09T22:49:02;8.60;99.90
780;DHT22;373;49.342;8.146;2023-01-09T22:51:29;8.40;99.90
780;DHT22;373;49.342;8.146;2023-01-09T22:53:58;8.40;99.90
780;DHT22;373;49.342;8.146;2023-01-09T22:56:25;8.40;99.90
780;DHT22;373;49.342;8.146;2023-01-09T22:58:55;8.50;99.90
780;DHT22;373;49.342;8.146;2023-01-09T23:01:24;8.70;99.90
780;DHT22;373;49.342;8.146;2023-01-09T23:03:51;8.60;99.90
780;DHT22;373;49.342;8.146;2023-01-09T23:06:20;8.80;99.90
780;DHT22;373;49.342;8.146;2023-01-09T23:08:48;8.70;99.90
780;DHT22;373;49.342;8.146;2023-01-09T23:11:18;8.60;99.90
780;DHT22;373;49.342;8.146;2023-01-09T23:14:07;8.50;99.90
780;DHT22;373;49.342;8.146;2023-01-09T23:16:34;8.40;99.90
780;DHT22;373;49.342;8.146;2023-01-09T23:19:01;8.60;99.90
780;DHT22;373;49.342;8.146;2023-01-09T23:21:29;8.70;99.90
780;DHT22;373;49.342;8.146;2023-01-09T23:23:57;8.70;99.90
780;DHT22;373;49.342;8.146;2023-01-09T23:26:24;8.60;99.90
780;DHT22;373;49.342;8.146;2023-01-09T23:28:51;8.50;99.90
780;DHT22;373;49.342;8.146;2023-01-09T23:31:19;8.40;99.90
780;DHT22;373;49.342;8.146;2023-01-09T23:33:46;8.30;99.90
780;DHT22;373;49.342;8.146;2023-01-09T23:36:14;8.10;99.90
780;DHT22;373;49.342;8.146;2023-01-09T23:38:41;8.10;99.90
780;DHT22;373;49.342;8.146;2023-01-09T23:41:08;8.40;99.90
780;DHT22;373;49.342;8.146;2023-01-09T23:43:35;8.50;99.90
780;DHT22;373;49.342;8.146;2023-01-09T23:46:01;8.50;99.90
780;DHT22;373;49.342;8.146;2023-01-09T23:48:29;8.10;99.90
780;DHT22;373;49.342;8.146;2023-01-09T23:50:56;7.90;99.90
780;DHT22;373;49.342;8.146;2023-01-09T23:53:24;8.00;99.90
780;DHT22;373;49.342;8.146;2023-01-09T23:55:52;8.00;99.90
780;DHT22;373;49.342;8.146;2023-01-09T23:58:20;7.80;99.90
